Time;durP1;ratioP1;P1;durP2;ratioP2;P2;SDS_P1;SDS_P2;PMS_P1;PMS_P2;Temp;Humidity;BMP_temperature;BMP_pressure;BME280_temperature;BME280_humidity;BME280_pressure;Samples;Min_cycle;Max_cycle;Signal;HPM_P1;HPM_P2
2022/10/30 00:01:21;;;;;;;9.25;4.38;;;16.60;76.00;;;19.53;49.47;98000.09;4907281;29;20061;-53
2022/10/30 00:03:50;;;;;;;11.02;5.15;;;16.60;75.90;;;19.51;49.69;97999.47;4907340;29;20048;-49
2022/10/30 00:06:19;;;;;;;7.97;3.97;;;16.60;76.00;;;19.50;49.55;97998.63;4906669;29;20053;-50
2022/10/30 00:08:47;;;;;;;8.27;3.88;;;16.60;76.00;;;19.51;49.41;97992.19;4907388;29;20052;-52
2022/10/30 00:11:15;;;;;;;8.05;3.40;;;16.60;76.00;;;19.52;49.41;97993.00;4907253;29;20239;-50
2022/10/30 00:13:43;;;;;;;6.72;3.28;;;16.60;75.90;;;19.53;49.36;98000.09;4907441;29;20082;-51
2022/10/30 00:16:11;;;;;;;13.52;4.13;;;16.60;76.40;;;19.56;49.03;97988.84;4906579;29;20059;-51
2022/10/30 00:18:42;;;;;;;12.45;5.55;;;16.70;74.50;;;19.61;49.29;98005.25;4907288;29;20216;-51
2022/10/30 00:21:14;;;;;;;9.85;3.83;;;16.70;74.70;;;19.63;49.21;97992.38;4907290;29;20224;-50
2022/10/30 00:23:50;;;;;;;7.00;4.65;;;16.80;74.60;;;19.64;49.26;97997.56;4905901;29;20350;-50
2022/10/30 00:26:21;;;;;;;8.07;4.03;;;16.80;74.70;;;19.63;49.33;97993.19;4905764;29;20052;-51
2022/10/30 00:28:51;;;;;;;7.78;3.75;;;16.70;75.00;;;19.62;49.16;97994.25;4907146;29;20052;-52
2022/10/30 00:31:19;;;;;;;9.98;3.95;;;16.70;75.10;;;19.62;49.28;97999.66;4890012;29;20254;-49
2022/10/30 00:33:53;;;;;;;8.05;4.03;;;16.70;75.10;;;19.62;49.20;97991.56;4905744;29;20063;-49
2022/10/30 00:36:22;;;;;;;;;;;16.70;75.00;;;19.72;48.83;97998.44;4907054;29;20045;-55
2022/10/30 00:38:50;;;;;;;11.82;4.55;;;16.60;75.20;;;19.68;49.16;98006.09;4906781;29;19925;-52
2022/10/30 00:41:23;;;;;;;8.20;3.83;;;16.60;75.50;;;19.63;49.10;98004.00;4906980;29;20062;-56
2022/10/30 00:43:51;;;;;;;10.65;4.80;;;16.60;75.20;;;19.61;49.10;98008.78;4906591;29;20072;-50
2022/10/30 00:46:39;;;;;;;14.27;4.07;;;16.60;75.30;;;19.56;49.29;98005.06;4906972;29;20055;-52
2022/10/30 00:49:18;;;;;;;10.30;3.65;;;16.60;75.40;;;19.57;49.34;97998.63;4905834;29;20059;-52
2022/10/30 00:51:53;;;;;;;9.70;4.63;;;16.60;75.80;;;19.57;49.57;98002.16;4907131;29;20320;-52
2022/10/30 00:54:22;;;;;;;11.07;4.22;;;16.60;76.10;;;19.53;49.57;98003.63;4905450;29;20339;-51
2022/10/30 00:56:52;;;;;;;7.32;3.83;;;16.60;76.20;;;19.51;49.55;97997.59;4905538;29;20053;-53
2022/10/30 00:59:29;;;;;;;7.38;3.75;;;16.50;76.20;;;19.49;49.64;97999.69;4905667;29;20053;-50
2022/10/30 01:02:00;;;;;;;9.45;4.55;;;16.50;76.70;;;19.45;49.61;98006.53;4905634;29;20052;-51
2022/10/30 01:04:31;;;;;;;10.77;4.80;;;16.40;76.60;;;19.43;49.43;98000.53;4905127;29;20059;-51
2022/10/30 01:07:09;;;;;;;8.82;4.00;;;16.40;76.90;;;19.41;49.79;97989.91;4905355;29;20061;-52
2022/10/30 01:09:39;;;;;;;10.85;4.13;;;16.40;77.10;;;19.39;49.74;97989.31;4905584;29;20219;-53
2022/10/30 01:12:08;;;;;;;10.43;3.92;;;16.40;77.10;;;19.38;49.95;97986.81;4890211;29;20065;-51
2022/10/30 01:14:46;;;;;;;7.70;3.75;;;16.30;77.30;;;19.35;49.83;97990.75;4889388;29;20058;-52
2022/10/30 01:17:19;;;;;;;11.07;3.97;;;16.30;77.30;;;19.32;49.75;97983.06;4888236;29;20052;-48
2022/10/30 01:19:56;;;;;;;8.57;5.07;;;16.30;77.30;;;19.34;49.81;97982.88;4906814;29;20389;-51
2022/10/30 01:23:14;;;;;;;6.55;4.20;;;16.30;77.10;;;19.35;49.74;97981.81;4889762;29;20255;-51
2022/10/30 01:26:38;;;;;;;13.00;4.40;;;16.40;77.10;;;19.32;49.75;97969.56;4905682;29;20262;-49
2022/10/30 01:29:32;;;;;;;10.95;4.38;;;16.30;77.60;;;19.31;49.88;97980.56;4880370;29;20063;-52
2022/10/30 01:32:26;;;;;;;12.40;5.60;;;16.20;78.00;;;19.27;50.16;97974.78;4889315;29;20068;-51
2022/10/30 01:35:07;;;;;;;9.20;4.40;;;16.20;77.80;;;19.30;49.66;97976.22;4889545;29;20065;-49
2022/10/30 01:37:56;;;;;;;10.60;3.38;;;16.30;77.10;;;19.34;49.73;97969.38;4874103;29;20048;-52
2022/10/30 01:40:25;;;;;;;4.70;2.75;;;16.40;75.70;;;19.37;49.04;97961.69;4890271;29;20049;-51
2022/10/30 01:42:57;;;;;;;12.10;4.00;;;16.50;75.20;;;19.44;49.09;97962.53;4890204;29;20057;-51
2022/10/30 01:45:46;;;;;;;;;;;16.60;74.50;;;19.65;49.17;97952.50;4890146;29;20049;-48
2022/10/30 01:48:51;;;;;;;8.73;4.20;;;16.70;73.30;;;19.67;48.75;97953.09;4890027;29;19926;-49
2022/10/30 01:52:02;;;;;;;8.40;3.15;;;16.70;74.70;;;19.68;48.75;97957.47;4889752;29;20067;-52
2022/10/30 01:54:54;;;;;;;6.28;3.33;;;16.90;72.70;;;19.74;48.33;97961.25;4889106;29;20057;-51
2022/10/30 01:57:49;;;;;;;12.73;3.97;;;16.90;71.60;;;19.77;48.50;97955.41;4889842;29;20059;-50
2022/10/30 02:00:19;;;;;;;14.52;4.57;;;17.00;71.60;;;19.81;47.68;97946.66;4890132;29;20049;-53
2022/10/30 02:02:50;;;;;;;9.30;4.45;;;17.00;71.60;;;19.84;47.60;97948.94;4889017;29;20313;-51
2022/10/30 02:05:42;;;;;;;;;;;17.10;71.10;;;20.02;47.74;97956.34;4889858;29;20059;-50
2022/10/30 02:08:11;;;;;;;7.47;3.03;;;17.10;68.90;;;20.01;47.13;97956.56;4889791;29;19926;-51
2022/10/30 02:10:43;;;;;;;11.32;3.45;;;17.20;70.20;;;19.99;46.96;97950.56;4889613;29;20068;-50
2022/10/30 02:13:11;;;;;;;8.05;3.50;;;17.20;69.70;;;19.99;46.92;97939.75;4889207;29;20049;-51
2022/10/30 02:15:42;;;;;;;9.35;3.30;;;17.30;69.60;;;20.00;46.98;97942.22;4888798;29;20246;-49
2022/10/30 02:18:10;;;;;;;8.70;3.00;;;17.30;69.20;;;20.03;46.75;97936.38;4889401;29;20053;-51
2022/10/30 02:20:40;;;;;;;12.05;3.63;;;17.30;68.90;;;20.06;46.72;97932.41;4874117;29;20071;-52
2022/10/30 02:23:12;;;;;;;7.03;3.15;;;17.30;68.70;;;20.10;46.41;97938.22;4889609;29;20239;-53
2022/10/30 02:25:40;;;;;;;8.73;3.90;;;17.40;68.40;;;20.10;46.31;97927.41;4888217;29;20053;-52
2022/10/30 02:28:09;;;;;;;10.35;3.42;;;17.40;68.10;;;20.12;46.10;97928.03;4889753;29;20100;-51
2022/10/30 02:30:42;;;;;;;5.63;3.45;;;17.40;68.00;;;20.10;46.01;97928.22;4890329;29;20190;-49
2022/10/30 02:33:11;;;;;;;9.85;3.72;;;17.40;67.60;;;20.14;46.08;97925.94;4890186;29;20049;-53
2022/10/30 02:35:39;;;;;;;13.07;3.53;;;17.40;67.50;;;20.14;45.79;97926.78;4888575;29;20053;-51
2022/10/30 02:38:07;;;;;;;6.97;3.88;;;17.40;68.30;;;20.12;46.00;97928.84;4890082;29;20059;-49
2022/10/30 02:40:36;;;;;;;10.77;3.80;;;17.40;67.40;;;20.11;46.08;97938.00;4888963;29;20061;-53
2022/10/30 02:43:04;;;;;;;7.88;4.40;;;17.30;67.70;;;20.10;46.23;97938.22;4889041;29;20154;-53
2022/10/30 02:45:32;;;;;;;11.95;3.95;;;17.30;68.00;;;20.06;46.05;97933.25;4888412;29;20246;-54
2022/10/30 02:48:00;;;;;;;6.55;3.00;;;17.30;68.10;;;20.03;46.26;97939.09;4890834;29;20064;-48
2022/10/30 02:50:30;;;;;;;9.25;3.95;;;17.10;68.50;;;19.98;46.14;97938.06;4888857;29;20061;-49
2022/10/30 02:52:58;;;;;;;15.90;3.90;;;17.10;68.80;;;19.91;46.25;97931.84;4889704;29;20052;-49
2022/10/30 02:55:27;;;;;;;8.65;3.75;;;16.90;69.30;;;19.84;46.57;97935.41;4889417;29;20059;-49
2022/10/30 02:57:56;;;;;;;7.78;3.33;;;16.80;69.70;;;19.76;46.78;97932.97;4888822;29;20056;-51
2022/10/30 03:00:24;;;;;;;10.93;4.53;;;16.80;70.10;;;19.67;46.82;97937.72;4889081;29;20262;-51
2022/10/30 03:02:56;;;;;;;19.00;5.95;;;16.70;70.50;;;19.61;47.14;97932.34;4889605;29;20052;-50
2022/10/30 03:05:24;;;;;;;8.20;4.20;;;16.60;71.00;;;19.55;47.44;97936.72;4889432;29;20049;-49
2022/10/30 03:07:54;;;;;;;11.85;5.25;;;16.50;71.70;;;19.44;48.13;97943.63;4888992;29;20063;-48
2022/10/30 03:10:22;;;;;;;10.02;4.90;;;16.40;73.60;;;19.39;48.31;97945.28;4889783;29;20251;-48
2022/10/30 03:12:52;;;;;;;8.93;4.20;;;16.30;74.10;;;19.32;48.37;97947.16;4888548;29;20061;-51
2022/10/30 03:15:21;;;;;;;6.57;4.30;;;16.20;74.20;;;19.22;48.20;97945.72;4887954;29;20056;-48
2022/10/30 03:17:51;;;;;;;9.05;3.90;;;16.20;74.40;;;19.12;48.49;97936.41;4888511;29;20342;-52
2022/10/30 03:20:20;;;;;;;13.00;5.40;;;16.00;74.70;;;19.00;48.75;97942.41;4889582;29;20049;-50
2022/10/30 03:22:48;;;;;;;8.68;3.85;;;15.90;75.30;;;18.93;48.77;97949.66;4889418;29;20055;-52
2022/10/30 03:25:22;;;;;;;9.68;3.58;;;15.80;75.50;;;18.89;48.91;97940.34;4888110;29;20048;-51
2022/10/30 03:27:54;;;;;;;9.52;4.85;;;15.80;75.60;;;18.84;48.99;97943.66;4888130;29;20063;-51
2022/10/30 03:30:23;;;;;;;8.40;4.05;;;15.80;75.90;;;18.76;49.13;97935.72;4872621;29;20254;-49
2022/10/30 03:32:51;;;;;;;9.00;4.20;;;15.70;76.30;;;18.70;49.19;97936.56;4888971;29;20057;-50
2022/10/30 03:35:20;;;;;;;8.32;4.68;;;15.60;76.40;;;18.67;49.31;97935.09;4888051;29;20052;-51
2022/10/30 03:37:48;;;;;;;13.45;4.90;;;15.60;76.60;;;18.63;49.18;97943.78;4888975;29;20049;-50
2022/10/30 03:40:18;;;;;;;8.50;4.40;;;15.60;76.20;;;18.60;48.93;97944.22;4887894;29;20369;-52
2022/10/30 03:42:46;;;;;;;9.60;4.68;;;15.60;75.70;;;18.53;49.30;97946.06;4888072;29;20075;-52
2022/10/30 03:45:14;;;;;;;8.52;3.75;;;15.50;76.30;;;18.52;49.55;97945.25;4872179;29;20053;-50
2022/10/30 03:47:43;;;;;;;9.88;4.47;;;15.50;77.00;;;18.53;49.82;97948.75;4888939;29;20118;-49
2022/10/30 03:50:11;;;;;;;7.10;4.43;;;15.50;77.30;;;18.52;49.67;97947.94;4887216;29;20057;-53
2022/10/30 03:52:39;;;;;;;15.13;5.10;;;15.50;77.20;;;18.48;49.83;97952.09;4888852;29;20055;-53
2022/10/30 03:55:07;;;;;;;10.43;4.63;;;15.40;77.30;;;18.42;49.90;97951.03;4887485;29;20059;-51
2022/10/30 03:57:39;;;;;;;6.05;3.58;;;15.40;77.30;;;18.41;49.69;97959.31;4887861;29;20048;-49
2022/10/30 04:00:17;;;;;;;8.07;3.67;;;15.40;77.10;;;18.40;49.55;97955.81;4888013;29;20053;-49
2022/10/30 04:02:59;;;;;;;7.80;3.60;;;15.30;76.90;;;18.39;49.48;97954.13;4887563;29;20347;-50
2022/10/30 04:05:30;;;;;;;8.70;4.03;;;15.40;77.10;;;18.36;49.66;97961.78;4887198;29;20255;-48
2022/10/30 04:08:06;;;;;;;7.43;3.92;;;15.30;77.20;;;18.36;49.80;97956.41;4872301;29;20057;-54
2022/10/30 04:10:36;;;;;;;7.50;4.22;;;15.30;77.30;;;18.33;49.78;97959.50;4872107;29;20248;-51
2022/10/30 04:13:11;;;;;;;13.55;4.95;;;15.30;77.40;;;18.29;49.70;97961.78;4887605;29;20240;-49
2022/10/30 04:15:50;;;;;;;9.07;3.67;;;15.20;77.30;;;18.25;49.89;97965.91;4886990;29;20057;-53
2022/10/30 04:18:25;;;;;;;12.70;4.00;;;15.20;77.70;;;18.20;50.11;97957.59;4885143;29;20234;-49
2022/10/30 04:20:54;;;;;;;7.75;3.83;;;15.10;77.80;;;18.14;49.82;97953.03;4887856;29;20053;-48
2022/10/30 04:23:23;;;;;;;11.93;3.90;;;15.00;77.90;;;18.11;49.86;97951.56;4872278;29;20067;-50
2022/10/30 04:25:51;;;;;;;7.95;3.40;;;15.00;77.80;;;18.12;49.67;97953.22;4887029;29;20061;-49
2022/10/30 04:28:20;;;;;;;9.30;3.38;;;15.10;77.20;;;18.14;49.67;97959.22;4888516;29;20056;-49
2022/10/30 04:30:48;;;;;;;11.15;3.67;;;15.10;76.70;;;18.18;49.70;97954.28;4888221;29;20057;-49
2022/10/30 04:33:17;;;;;;;8.35;3.83;;;15.20;76.30;;;18.19;49.34;97958.66;4888465;29;20059;-51
2022/10/30 04:35:45;;;;;;;9.70;4.43;;;15.30;75.90;;;18.21;49.17;97951.19;4886908;29;20064;-53
2022/10/30 04:38:20;;;;;;;7.20;3.85;;;15.30;75.70;;;18.20;49.49;97955.72;4889417;29;20049;-53
2022/10/30 04:40:48;;;;;;;7.38;3.78;;;15.20;75.80;;;18.19;49.18;97955.94;4888742;29;20057;-52
2022/10/30 04:43:17;;;;;;;13.25;4.38;;;15.20;75.70;;;18.19;49.40;97951.38;4902794;29;20242;-51
2022/10/30 04:45:49;;;;;;;8.32;3.25;;;15.20;75.50;;;18.23;49.29;97957.19;4901632;29;20041;-51
2022/10/30 04:48:18;;;;;;;11.93;4.03;;;15.30;75.30;;;18.24;49.29;97961.53;4887092;29;20254;-54
2022/10/30 04:50:47;;;;;;;7.60;3.78;;;15.30;75.50;;;18.23;49.43;97952.63;4902534;29;20056;-51
2022/10/30 04:53:24;;;;;;;7.85;3.42;;;15.30;75.50;;;18.22;49.21;97947.44;4902399;29;20052;-50
2022/10/30 04:55:59;;;;;;;12.95;3.70;;;15.20;75.30;;;18.18;49.39;97940.81;4901181;29;20059;-51
2022/10/30 04:58:28;;;;;;;9.05;3.78;;;15.20;75.60;;;18.17;49.17;97942.66;4901672;29;20365;-51
2022/10/30 05:01:08;;;;;;;10.10;4.05;;;15.10;75.40;;;18.14;49.14;97940.38;4903098;29;20049;-51
2022/10/30 05:03:37;;;;;;;8.95;3.97;;;15.10;75.60;;;18.13;48.91;97938.72;4906211;29;20063;-51
2022/10/30 05:06:29;;;;;;;10.05;3.60;;;15.10;75.30;;;18.15;49.16;97944.75;4905523;29;20053;-51
2022/10/30 05:08:58;;;;;;;7.35;3.22;;;15.20;74.80;;;18.12;49.14;97947.00;4891778;29;20063;-50
2022/10/30 05:11:38;;;;;;;7.60;3.00;;;15.10;75.00;;;18.13;49.06;97943.28;4890859;29;20053;-50
2022/10/30 05:14:08;;;;;;;11.15;4.30;;;15.20;74.70;;;18.12;49.03;97941.63;4890654;29;20060;-54
2022/10/30 05:16:37;;;;;;;8.80;3.40;;;15.20;74.20;;;18.15;48.78;97942.03;4891523;29;20048;-52
2022/10/30 05:19:06;;;;;;;10.30;5.25;;;15.30;74.00;;;18.18;48.84;97938.94;4890419;29;20052;-50
2022/10/30 05:21:35;;;;;;;8.77;4.22;;;15.30;73.90;;;18.18;49.08;97935.41;4905707;29;20053;-49
2022/10/30 05:24:04;;;;;;;10.32;4.85;;;15.30;73.90;;;18.21;48.97;97940.41;4905867;29;20259;-54
2022/10/30 05:26:40;;;;;;;8.70;3.55;;;15.30;73.70;;;18.24;48.81;97931.91;4905504;29;20071;-50
2022/10/30 05:29:08;;;;;;;8.80;3.40;;;15.30;73.80;;;18.22;48.64;97929.44;4891421;29;20243;-51
2022/10/30 05:31:39;;;;;;;9.45;4.75;;;15.30;73.60;;;18.20;48.59;97923.38;4905848;29;20059;-49
2022/10/30 05:34:16;;;;;;;6.50;3.45;;;15.30;73.60;;;18.20;48.51;97922.56;4894820;29;20056;-50
2022/10/30 05:36:47;;;;;;;8.57;4.18;;;15.30;73.20;;;18.19;48.56;97923.63;4905098;29;20053;-50
2022/10/30 05:39:16;;;;;;;10.70;3.95;;;15.30;73.10;;;18.20;48.54;97922.56;4888793;29;20052;-51
2022/10/30 05:41:47;;;;;;;6.88;2.92;;;15.30;73.00;;;18.20;48.28;97926.09;4888808;29;20049;-51
2022/10/30 05:44:17;;;;;;;8.70;3.90;;;15.30;72.90;;;18.20;48.31;97931.47;4888261;29;20374;-53
2022/10/30 05:47:01;;;;;;;5.38;3.28;;;15.30;72.60;;;18.17;48.31;97925.69;4888702;29;20049;-50
2022/10/30 05:49:33;;;;;;;8.50;4.05;;;15.20;73.10;;;18.12;48.61;97928.16;4888638;29;20059;-52
2022/10/30 05:52:04;;;;;;;8.13;3.85;;;15.10;73.60;;;18.08;48.67;97925.03;4888683;29;20061;-54
2022/10/30 05:54:32;;;;;;;13.90;3.80;;;15.10;73.90;;;18.04;48.56;97919.19;4889473;29;20055;-49
2022/10/30 05:57:07;;;;;;;8.05;3.83;;;15.00;73.90;;;18.02;48.31;97926.66;4903757;29;20053;-50
2022/10/30 05:59:38;;;;;;;8.52;3.75;;;15.00;73.60;;;18.01;48.18;97929.53;4888532;29;20063;-49
2022/10/30 06:02:07;;;;;;;7.20;3.75;;;15.00;73.10;;;17.97;48.25;97923.75;4904092;29;20053;-48
2022/10/30 06:04:36;;;;;;;16.13;7.47;;;15.00;73.30;;;17.94;48.04;97924.16;4903502;29;20053;-52
2022/10/30 06:07:10;;;;;;;25.33;10.18;;;15.00;72.90;;;17.97;47.73;97923.75;4888634;29;20048;-50
2022/10/30 06:09:38;;;;;;;21.60;9.43;;;15.00;71.60;;;18.00;47.92;97928.72;4888657;29;20057;-49
2022/10/30 06:12:26;;;;;;;22.23;9.48;;;15.10;71.50;;;18.06;47.71;97932.47;4885690;29;20063;-50
2022/10/30 06:15:05;;;;;;;18.92;8.25;;;15.20;71.60;;;18.08;47.75;97933.94;4903316;29;20052;-53
2022/10/30 06:17:33;;;;;;;24.67;8.80;;;15.20;71.60;;;18.08;47.45;97930.41;4903839;29;20056;-54
2022/10/30 06:20:15;;;;;;;15.07;7.60;;;15.20;71.50;;;18.08;47.33;97925.03;4888267;29;20049;-50
2022/10/30 06:22:56;;;;;;;12.90;5.47;;;15.20;70.90;;;18.08;47.45;97930.41;4891521;29;20037;-49
2022/10/30 06:25:31;;;;;;;11.35;5.07;;;15.20;70.70;;;18.05;47.34;97928.13;4903555;29;20224;-49
2022/10/30 06:28:30;;;;;;;13.32;6.70;;;15.10;71.30;;;18.01;47.55;97927.72;4903629;29;20111;-50
2022/10/30 06:30:58;;;;;;;18.02;6.20;;;15.00;71.70;;;17.96;47.87;97930.16;4903407;29;20060;-51
2022/10/30 06:33:27;;;;;;;14.52;6.05;;;15.00;72.00;;;17.94;47.89;97932.22;4903055;29;20057;-50
2022/10/30 06:35:55;;;;;;;14.30;6.15;;;15.00;72.10;;;17.94;47.62;97932.22;4903041;29;20061;-50
2022/10/30 06:38:23;;;;;;;10.38;6.46;;;15.00;71.90;;;17.96;47.69;97937.41;4861445;29;1250072;-49
2022/10/30 06:40:53;;;;;;;12.52;6.43;;;15.00;71.60;;;17.97;47.71;97945.31;4904252;29;20057;-51
2022/10/30 06:43:40;;;;;;;14.55;6.50;;;15.00;71.90;;;17.97;47.72;97945.31;4892058;29;20055;-52
2022/10/30 06:46:26;;;;;;;24.73;7.28;;;15.00;72.20;;;17.97;47.91;97950.69;4888681;29;20111;-49
2022/10/30 06:49:00;;;;;;;16.23;6.13;;;15.00;72.10;;;17.95;48.11;97947.38;4904497;29;20048;-53
2022/10/30 06:51:30;;;;;;;10.45;4.75;;;15.00;72.50;;;17.92;48.04;97944.25;4888954;29;20049;-52
2022/10/30 06:54:00;;;;;;;12.57;6.30;;;15.00;72.40;;;17.92;48.29;97952.31;4889151;29;20053;-55
2022/10/30 06:56:50;;;;;;;11.10;6.13;;;15.00;72.90;;;17.93;48.36;97951.28;4889741;29;20049;-51
2022/10/30 06:59:48;;;;;;;10.73;5.35;;;14.90;73.20;;;17.95;48.12;97944.69;4889551;29;20057;-50
2022/10/30 07:02:36;;;;;;;7.85;4.97;;;15.00;73.00;;;17.97;48.53;97947.16;4901641;29;20057;-52
2022/10/30 07:05:09;;;;;;;7.10;4.18;;;15.00;73.10;;;17.99;48.38;97945.94;4887848;29;20060;-53
2022/10/30 07:07:39;;;;;;;8.68;4.55;;;15.00;73.10;;;18.00;48.60;97949.44;4903558;29;20061;-53
2022/10/30 07:10:08;;;;;;;13.00;6.03;;;15.10;73.50;;;18.03;48.50;97959.81;4908704;29;20086;-50
2022/10/30 07:13:03;;;;;;;9.02;5.25;;;15.10;73.50;;;18.06;48.42;97956.72;4896231;29;20056;-52
2022/10/30 07:15:43;;;;;;;11.07;5.55;;;15.20;73.60;;;18.07;48.62;97961.09;4907073;29;20066;-53
2022/10/30 07:18:21;;;;;;;9.23;6.00;;;15.20;73.60;;;18.05;49.08;97961.28;4921669;29;20057;-54
2022/10/30 07:20:55;;;;;;;10.10;4.70;;;15.20;73.90;;;18.07;49.18;97958.41;4921367;29;20048;-52
2022/10/30 07:23:24;;;;;;;12.50;5.40;;;15.30;74.60;;;18.09;49.33;97964.41;4920815;29;20255;-53
2022/10/30 07:25:59;;;;;;;10.70;4.75;;;15.20;74.60;;;18.13;49.21;97962.16;4920457;29;20346;-53
2022/10/30 07:28:42;;;;;;;11.30;4.67;;;15.30;75.00;;;18.19;48.99;97966.72;4921385;29;20060;-53
2022/10/30 07:31:19;;;;;;;12.40;5.63;;;15.30;74.70;;;18.22;49.28;97972.53;4921692;29;20056;-52
2022/10/30 07:34:30;;;;;;;9.57;4.38;;;15.30;75.00;;;18.27;48.93;97967.38;4901005;29;20364;-52
2022/10/30 07:37:17;;;;;;;5.97;4.18;;;15.40;74.70;;;18.29;48.97;97959.09;4909641;29;20051;-51
2022/10/30 07:39:57;;;;;;;9.48;5.63;;;15.40;74.20;;;18.32;49.22;97956.00;4891387;29;20049;-53
2022/10/30 07:42:44;;;;;;;11.75;5.15;;;15.40;74.60;;;18.38;49.06;97965.97;4920547;29;20378;-54
2022/10/30 07:45:33;;;;;;;15.15;4.80;;;15.50;74.50;;;18.44;49.08;97964.31;4920929;29;20078;-54
2022/10/30 07:48:39;;;;;;;7.97;3.30;;;15.60;74.10;;;18.53;49.05;97973.84;4886728;29;20049;-52
2022/10/30 07:51:18;;;;;;;7.25;3.30;;;15.70;74.00;;;18.61;48.70;97967.44;4871906;29;20217;-54
2022/10/30 07:53:46;;;;;;;9.57;3.10;;;15.80;73.40;;;18.68;48.50;97966.41;4889102;29;20058;-51
2022/10/30 07:56:15;;;;;;;8.73;3.28;;;15.90;73.00;;;18.77;48.21;97964.38;4920206;29;20059;-53
2022/10/30 07:58:52;;;;;;;12.15;4.72;;;16.00;72.40;;;18.86;48.46;97968.56;4907916;29;20043;-54
2022/10/30 08:01:37;;;;;;;9.25;3.78;;;16.10;72.20;;;18.95;48.55;97969.19;4920838;29;20094;-53
2022/10/30 08:04:26;;;;;;;8.02;3.25;;;16.30;72.70;;;19.05;48.54;97974.16;4899239;29;20053;-51
2022/10/30 08:06:59;;;;;;;9.07;4.05;;;16.30;72.70;;;19.10;48.80;97974.38;4920486;29;20058;-50
2022/10/30 08:09:29;;;;;;;11.75;5.28;;;16.40;72.80;;;19.14;48.89;97972.09;4905229;29;20404;-54
2022/10/30 08:11:57;;;;;;;10.98;4.50;;;16.40;73.20;;;19.19;49.81;97981.22;4920574;29;20082;-52
2022/10/30 08:14:25;;;;;;;17.98;6.25;;;16.50;75.10;;;19.24;50.47;97980.59;4905201;29;20062;-49
2022/10/30 08:16:56;;;;;;;11.75;4.57;;;16.50;76.40;;;19.27;50.50;97975.63;4906523;29;20350;-49
2022/10/30 08:19:24;;;;;;;9.77;5.03;;;16.60;76.70;;;19.32;50.88;97980.38;4920169;29;20052;-52
2022/10/30 08:21:54;;;;;;;9.85;4.90;;;16.60;77.20;;;19.36;50.94;97978.09;4903962;29;20052;-52
2022/10/30 08:24:27;;;;;;;8.52;4.57;;;16.70;77.90;;;19.42;50.77;97971.84;4920488;29;20419;-50
2022/10/30 08:26:58;;;;;;;7.80;4.10;;;16.70;77.50;;;19.45;50.82;97980.38;4905169;29;20241;-53
2022/10/30 08:29:27;;;;;;;10.70;5.07;;;16.70;77.50;;;19.49;50.95;97980.78;4920250;29;20063;-52
2022/10/30 08:31:56;;;;;;;11.23;5.30;;;16.80;77.60;;;19.53;51.05;97987.41;4920252;29;20067;-53
2022/10/30 08:34:26;;;;;;;9.65;4.47;;;16.80;77.70;;;19.57;51.00;97975.16;4905332;29;20051;-52
2022/10/30 08:36:56;;;;;;;8.45;5.10;;;16.80;77.80;;;19.59;51.49;97969.53;4920295;29;20060;-54
2022/10/30 08:39:24;;;;;;;8.68;4.88;;;16.90;79.30;;;19.63;51.92;97970.78;4905795;29;20246;-51
2022/10/30 08:42:16;;;;;;;8.20;4.38;;;16.90;79.60;;;19.71;51.76;97977.81;4877527;29;20070;-54
2022/10/30 08:44:44;;;;;;;7.57;4.55;;;17.00;80.10;;;19.73;51.88;97973.88;4904450;29;20091;-54
2022/10/30 08:47:24;;;;;;;8.52;4.85;;;17.00;80.10;;;19.77;51.66;97969.72;4911089;29;20059;-56
2022/10/30 08:49:53;;;;;;;8.82;4.40;;;17.10;80.00;;;19.81;51.62;97967.44;4906204;29;20057;-55
2022/10/30 08:52:24;;;;;;;9.13;4.18;;;17.20;79.70;;;19.86;51.82;97968.44;4904078;29;20053;-56
2022/10/30 08:54:56;;;;;;;8.57;4.63;;;17.20;79.90;;;19.91;52.05;97972.38;4889173;29;20354;-53
2022/10/30 08:57:27;;;;;;;7.15;4.20;;;17.30;80.20;;;19.97;52.60;97976.97;4889466;29;20351;-57
2022/10/30 08:59:57;;;;;;;8.52;4.80;;;17.40;81.20;;;20.02;52.75;97982.53;4872073;29;20055;-56
2022/10/30 09:02:54;;;;;;;9.43;4.22;;;17.40;81.60;;;20.09;52.75;97977.94;4906423;29;20273;-56
2022/10/30 09:05:51;;;;;;;7.05;4.13;;;17.40;82.20;;;20.14;52.88;97978.13;4893796;29;20053;-54
2022/10/30 09:08:20;;;;;;;9.07;3.97;;;17.50;82.90;;;20.14;53.23;97980.84;4906785;29;20047;-52
2022/10/30 09:11:02;;;;;;;6.55;3.95;;;17.50;83.30;;;20.17;53.22;97969.59;4905374;29;20258;-55
2022/10/30 09:13:32;;;;;;;7.80;4.22;;;17.60;83.60;;;20.21;53.05;97978.09;4889882;29;20056;-55
2022/10/30 09:16:02;;;;;;;8.23;4.40;;;17.60;83.60;;;20.24;53.07;97972.28;4904357;29;20060;-54
2022/10/30 09:18:33;;;;;;;7.30;4.78;;;17.60;83.90;;;20.30;53.26;97978.66;4905442;29;20056;-54
2022/10/30 09:21:02;;;;;;;6.57;3.92;;;17.70;84.00;;;20.35;53.56;97986.97;4889836;29;20068;-55
2022/10/30 09:23:37;;;;;;;10.45;4.68;;;17.70;84.60;;;20.37;53.78;97979.47;4875543;29;20053;-52
2022/10/30 09:26:28;;;;;;;7.05;4.03;;;17.80;85.70;;;20.47;54.24;97985.22;4905958;29;20049;-53
2022/10/30 09:29:17;;;;;;;10.85;4.07;;;17.80;86.60;;;20.51;54.16;97978.38;4905657;29;20052;-54
2022/10/30 09:32:14;;;;;;;8.45;4.78;;;17.90;87.40;;;20.56;54.06;97983.13;4898134;29;20059;-51
2022/10/30 09:34:51;;;;;;;9.93;4.70;;;17.90;87.30;;;20.58;53.82;97991.84;4889668;29;20056;-55
2022/10/30 09:37:26;;;;;;;12.13;4.97;;;18.00;87.50;;;20.61;54.10;97980.63;4889725;29;20084;-54
2022/10/30 09:39:59;;;;;;;8.50;4.50;;;18.00;87.60;;;20.68;53.74;97983.28;4889465;29;20054;-55
2022/10/30 09:42:43;;;;;;;10.15;4.93;;;18.10;87.50;;;20.71;53.97;97980.16;4905128;29;20052;-50
2022/10/30 09:45:41;;;;;;;10.80;5.32;;;18.10;87.90;;;20.76;53.59;97985.72;4889105;29;20224;-53
2022/10/30 09:48:22;;;;;;;9.13;4.43;;;18.10;87.60;;;20.78;53.66;97981.78;4902869;29;20060;-55
2022/10/30 09:55:40;;;;;;;10.45;5.40;;;18.20;88.40;;;20.91;54.07;97988.13;4892853;29;20043;-54
2022/10/30 09:58:32;;;;;;;8.82;3.90;;;18.20;88.00;;;20.92;53.92;97987.91;4905125;29;20529;-55
2022/10/30 10:01:28;;;;;;;10.35;5.03;;;18.30;88.30;;;20.97;53.67;97995.38;4888742;29;20392;-53
2022/10/30 10:04:27;;;;;;;9.38;4.35;;;18.40;88.40;;;21.01;53.92;97994.72;4904140;29;20232;-52
2022/10/30 10:07:29;;;;;;;6.05;4.30;;;18.50;88.60;;;21.11;53.80;97998.78;4897338;29;20052;-55
2022/10/30 10:10:52;;;;;;;10.30;4.82;;;18.50;87.90;;;21.19;53.75;97993.94;4893961;29;20065;-54
2022/10/30 10:13:37;;;;;;;8.85;4.63;;;18.60;87.80;;;21.24;53.45;97994.09;4909275;29;20251;-52
2022/10/30 10:16:20;;;;;;;9.55;4.18;;;18.70;87.30;;;21.32;53.58;97992.16;4909365;29;20056;-55
2022/10/30 10:19:06;;;;;;;8.65;4.40;;;18.80;86.90;;;21.35;53.67;97989.84;4892983;29;20056;-53
2022/10/30 10:22:06;;;;;;;7.82;4.45;;;18.80;86.30;;;21.43;53.49;97994.16;4909486;29;20049;-54
2022/10/30 10:24:43;;;;;;;7.95;4.03;;;18.80;86.00;;;21.51;53.40;97990.38;4886904;29;20063;-53
2022/10/30 10:27:37;;;;;;;8.07;4.25;;;18.90;85.80;;;21.54;52.92;97979.91;4909320;29;20049;-49
2022/10/30 10:30:19;;;;;;;10.52;3.65;;;19.00;85.50;;;21.62;53.14;97989.63;4909150;29;20082;-50
2022/10/30 10:33:08;;;;;;;9.25;4.00;;;19.00;85.00;;;21.67;52.76;97986.25;4893293;29;20057;-50
2022/10/30 10:36:20;;;;;;;7.28;4.22;;;19.10;84.90;;;21.71;52.82;97984.75;4907481;29;20048;-54
2022/10/30 10:39:06;;;;;;;8.25;4.65;;;19.20;84.90;;;21.79;52.71;97988.00;4909026;29;20049;-50
2022/10/30 10:42:01;;;;;;;7.75;4.22;;;19.20;84.60;;;21.85;52.53;97980.00;4909106;29;20354;-53
2022/10/30 10:44:38;;;;;;;12.93;6.65;;;19.30;84.20;;;21.91;52.56;97982.66;4908709;29;20058;-55
2022/10/30 10:47:43;;;;;;;6.65;3.88;;;19.30;84.30;;;21.96;52.71;97987.38;4892735;29;20056;-53
2022/10/30 10:50:24;;;;;;;7.63;3.47;;;19.40;84.40;;;22.02;52.75;97976.47;4909031;29;20058;-54
2022/10/30 10:53:08;;;;;;;8.70;5.30;;;19.50;84.80;;;22.09;52.06;97987.22;4908782;29;20048;-56
2022/10/30 10:55:38;;;;;;;11.10;4.75;;;19.50;83.10;;;22.14;51.98;97972.97;4891627;29;20239;-53
2022/10/30 10:58:22;;;;;;;8.05;4.13;;;19.60;83.00;;;22.19;52.11;97982.09;4891607;29;20052;-55
2022/10/30 11:00:51;;;;;;;6.93;4.40;;;19.60;82.00;;;22.25;51.63;97977.69;4892875;29;20054;-55